Farmington, NM

9:29 PM MDT on July 23, 2017 (GMT -0600)
Ute and Loma Linda | | Change Station

Elev 5453 ft 36.74 °N, 108.20 °W | Updated 34 seconds ago

Scattered Clouds
Scattered Clouds
78.5 °F
Feels Like 79 °F
N
2.0
Wind Variable Wind from NE

Today
High -- | Low -- °F
--% Chance of Precip.
Yesterday
High -- | Low -- °F
Precip. -- in
Pressure 29.90 in
Visibility 10.0 miles
Clouds Scattered Clouds 10000 ft
Heat Index 79 °F
Dew Point 51 °F
Humidity 39%
Rainfall 0.00 in
Snow Depth Not available.
6:11 AM 8:26 PM
New Moon, 1% visible
METAR KFMN 240253Z 09010KT 10SM SCT100 27/08 A3010 RMK AO2 LTG DSNT E SLP125 T02670083 53012
Pressure 29.90 in
Visibility 10.0 miles
Clouds Scattered Clouds 10000 ft
Heat Index 79 °F
Dew Point 51 °F
Humidity 39%
Rainfall 0.00 in
Snow Depth Not available.
6:11 AM 8:26 PM
New Moon, 1% visible
METAR KFMN 240253Z 09010KT 10SM SCT100 27/08 A3010 RMK AO2 LTG DSNT E SLP125 T02670083 53012

Get Severe Weather Alerts

Thanks for signing up!

Be on the lookout for a verification email in your inbox.

You'll start receiving the daily forecast at 6 AM.

×

10-Day Weather Forecast

Almanac

Astronomy

Jul. 23, 2017 Rise Set
Actual Time
Civil Twilight
Nautical Twilight
Astronomical Twilight
Moon
Length of Visible Light
Length of Day
Tomorrow will be .
, % of the Moon is Illuminated

Today's Extremes

State Highs State Lows

Community

WunderPhotos

Category 6

Welcome to Category 6. This is the collective home for Weather Underground's featured writeups by Dr. Jeff Masters (right), Bob Henson (left), Chris Burt, and other regular contributors.

Nearby

Air Quality

  Air Quality AQ Index Pollutant
Not available.

Snow Depth

Station Depth Elevation

Earthquake Activity

City Distance Mag. Time & Date
Minimum magnitude displayed is 2.5.

Coastal Water Temperatures

Place Temperature

Stations

Nearby Weather Stations

Station Location Temp. Windchill Dew Point Humidity Wind Precip. Elev Updated Type
                   

Watches & Warnings

There are currently no watches in effect.